Haukanier, Texas
Current Conditions -  °F | °C
As of 2:35 AM on Sunday 21 Dec 2014 (Local Time) from KBMT Reporting Station
Clear Clear  
Wind Chill: 42°   Ceiling: Unl
Heat Index: 42°   Visibility: 7mi
Dew Point: 41°   Wind: 3mph
Humidity: 99%   Direction: 10°N
Pressure: 30.16"   Gusts: NA
Location:  29.8747°N, 94.58°W
Report Text: KBMT 210835Z AUTO 01003KT 7SM CLR 05/05 A3016 RMK AO2 T00530051
Loading
Personal Weather Stations






























Interactive Weather Map New forecast layout! Learn more

10-Day Weather Forecast

Advertisements
Track Severe Weather on mobile